sensor_id;sensor_type;location;lat;lon;timestamp;P1;durP1;ratioP1;P2;durP2;ratioP2
39454;SDS011;25155;41.890;23.446;2023-02-15T00:02:03;19.20;;;12.85;;
39454;SDS011;25155;41.890;23.446;2023-02-15T00:04:30;21.83;;;15.15;;
39454;SDS011;25155;41.890;23.446;2023-02-15T00:07:26;20.17;;;13.98;;
39454;SDS011;25155;41.890;23.446;2023-02-15T00:09:54;26.63;;;18.33;;
39454;SDS011;25155;41.890;23.446;2023-02-15T00:12:21;23.83;;;16.00;;
39454;SDS011;25155;41.890;23.446;2023-02-15T00:14:48;26.42;;;17.17;;
39454;SDS011;25155;41.890;23.446;2023-02-15T00:17:15;28.45;;;18.13;;
39454;SDS011;25155;41.890;23.446;2023-02-15T00:19:42;20.63;;;13.90;;
39454;SDS011;25155;41.890;23.446;2023-02-15T00:22:09;17.23;;;11.93;;
39454;SDS011;25155;41.890;23.446;2023-02-15T00:24:38;15.98;;;11.02;;
39454;SDS011;25155;41.890;23.446;2023-02-15T00:27:05;20.65;;;11.68;;
39454;SDS011;25155;41.890;23.446;2023-02-15T00:29:34;17.10;;;11.38;;
39454;SDS011;25155;41.890;23.446;2023-02-15T00:32:01;16.58;;;11.02;;
39454;SDS011;25155;41.890;23.446;2023-02-15T00:34:29;19.88;;;13.35;;
39454;SDS011;25155;41.890;23.446;2023-02-15T00:36:56;16.40;;;10.35;;
39454;SDS011;25155;41.890;23.446;2023-02-15T00:39:23;15.90;;;10.57;;
39454;SDS011;25155;41.890;23.446;2023-02-15T00:41:54;16.05;;;10.68;;
39454;SDS011;25155;41.890;23.446;2023-02-15T00:44:21;17.05;;;11.63;;
39454;SDS011;25155;41.890;23.446;2023-02-15T00:46:48;23.67;;;14.65;;
39454;SDS011;25155;41.890;23.446;2023-02-15T00:49:16;20.58;;;13.48;;
39454;SDS011;25155;41.890;23.446;2023-02-15T00:51:44;23.95;;;15.25;;
39454;SDS011;25155;41.890;23.446;2023-02-15T00:54:11;22.23;;;14.82;;
39454;SDS011;25155;41.890;23.446;2023-02-15T00:56:38;18.23;;;13.13;;
39454;SDS011;25155;41.890;23.446;2023-02-15T00:59:07;18.67;;;12.63;;
39454;SDS011;25155;41.890;23.446;2023-02-15T01:01:35;24.50;;;15.50;;
39454;SDS011;25155;41.890;23.446;2023-02-15T01:04:02;17.77;;;11.88;;
39454;SDS011;25155;41.890;23.446;2023-02-15T01:06:30;23.73;;;15.82;;
39454;SDS011;25155;41.890;23.446;2023-02-15T01:08:57;33.08;;;19.52;;
39454;SDS011;25155;41.890;23.446;2023-02-15T01:11:24;29.70;;;18.67;;
39454;SDS011;25155;41.890;23.446;2023-02-15T01:13:53;36.28;;;21.08;;
39454;SDS011;25155;41.890;23.446;2023-02-15T01:16:24;40.13;;;24.85;;
39454;SDS011;25155;41.890;23.446;2023-02-15T01:18:53;44.72;;;25.27;;
39454;SDS011;25155;41.890;23.446;2023-02-15T01:21:22;42.95;;;25.85;;
39454;SDS011;25155;41.890;23.446;2023-02-15T01:23:51;42.00;;;27.65;;
39454;SDS011;25155;41.890;23.446;2023-02-15T01:26:19;36.72;;;23.60;;
39454;SDS011;25155;41.890;23.446;2023-02-15T01:28:46;35.97;;;22.48;;
39454;SDS011;25155;41.890;23.446;2023-02-15T01:31:14;38.78;;;25.08;;
39454;SDS011;25155;41.890;23.446;2023-02-15T01:33:45;55.45;;;35.63;;
39454;SDS011;25155;41.890;23.446;2023-02-15T01:36:13;48.55;;;30.98;;
39454;SDS011;25155;41.890;23.446;2023-02-15T01:38:42;63.97;;;38.28;;
39454;SDS011;25155;41.890;23.446;2023-02-15T01:41:09;75.18;;;43.38;;
39454;SDS011;25155;41.890;23.446;2023-02-15T01:43:53;57.08;;;33.67;;
39454;SDS011;25155;41.890;23.446;2023-02-15T01:46:23;48.17;;;26.45;;
39454;SDS011;25155;41.890;23.446;2023-02-15T01:48:55;39.17;;;23.75;;
39454;SDS011;25155;41.890;23.446;2023-02-15T01:51:27;41.50;;;24.95;;
39454;SDS011;25155;41.890;23.446;2023-02-15T01:53:58;35.30;;;21.83;;
39454;SDS011;25155;41.890;23.446;2023-02-15T01:56:30;43.25;;;25.63;;
39454;SDS011;25155;41.890;23.446;2023-02-15T01:59:02;42.30;;;24.67;;
39454;SDS011;25155;41.890;23.446;2023-02-15T02:01:33;37.35;;;23.90;;
39454;SDS011;25155;41.890;23.446;2023-02-15T02:04:04;40.25;;;25.08;;
39454;SDS011;25155;41.890;23.446;2023-02-15T02:06:39;36.67;;;23.88;;
39454;SDS011;25155;41.890;23.446;2023-02-15T02:09:07;33.33;;;20.58;;
39454;SDS011;25155;41.890;23.446;2023-02-15T02:11:35;26.27;;;16.58;;
39454;SDS011;25155;41.890;23.446;2023-02-15T02:14:02;24.73;;;15.60;;
39454;SDS011;25155;41.890;23.446;2023-02-15T02:16:32;27.00;;;17.02;;
39454;SDS011;25155;41.890;23.446;2023-02-15T02:19:31;26.77;;;17.25;;
39454;SDS011;25155;41.890;23.446;2023-02-15T02:28:16;25.45;;;16.85;;
39454;SDS011;25155;41.890;23.446;2023-02-15T02:31:03;33.42;;;20.95;;
39454;SDS011;25155;41.890;23.446;2023-02-15T02:33:55;38.97;;;24.45;;
39454;SDS011;25155;41.890;23.446;2023-02-15T02:36:30;34.80;;;21.48;;
39454;SDS011;25155;41.890;23.446;2023-02-15T02:39:07;25.90;;;17.02;;
39454;SDS011;25155;41.890;23.446;2023-02-15T02:41:48;32.63;;;20.90;;
39454;SDS011;25155;41.890;23.446;2023-02-15T02:44:23;36.78;;;23.05;;
39454;SDS011;25155;41.890;23.446;2023-02-15T02:46:57;38.50;;;22.92;;
39454;SDS011;25155;41.890;23.446;2023-02-15T02:49:33;35.92;;;22.55;;
39454;SDS011;25155;41.890;23.446;2023-02-15T02:52:02;34.60;;;22.77;;
39454;SDS011;25155;41.890;23.446;2023-02-15T02:54:31;26.13;;;16.33;;
39454;SDS011;25155;41.890;23.446;2023-02-15T02:57:01;22.13;;;15.05;;
39454;SDS011;25155;41.890;23.446;2023-02-15T02:59:35;20.23;;;14.05;;
39454;SDS011;25155;41.890;23.446;2023-02-15T03:02:07;18.67;;;12.88;;
39454;SDS011;25155;41.890;23.446;2023-02-15T03:04:42;20.88;;;13.60;;
39454;SDS011;25155;41.890;23.446;2023-02-15T03:07:14;30.88;;;19.73;;
39454;SDS011;25155;41.890;23.446;2023-02-15T03:09:48;39.08;;;24.05;;
39454;SDS011;25155;41.890;23.446;2023-02-15T03:12:19;36.73;;;21.90;;
39454;SDS011;25155;41.890;23.446;2023-02-15T03:14:50;31.20;;;19.52;;
39454;SDS011;25155;41.890;23.446;2023-02-15T03:17:20;38.38;;;24.63;;
39454;SDS011;25155;41.890;23.446;2023-02-15T03:19:51;53.42;;;32.15;;
39454;SDS011;25155;41.890;23.446;2023-02-15T03:22:25;48.08;;;29.25;;
39454;SDS011;25155;41.890;23.446;2023-02-15T03:24:58;47.83;;;30.10;;
39454;SDS011;25155;41.890;23.446;2023-02-15T03:27:31;45.17;;;27.88;;
39454;SDS011;25155;41.890;23.446;2023-02-15T03:30:03;36.38;;;22.70;;
39454;SDS011;25155;41.890;23.446;2023-02-15T03:32:32;49.03;;;31.08;;
39454;SDS011;25155;41.890;23.446;2023-02-15T03:35:02;44.50;;;26.65;;
39454;SDS011;25155;41.890;23.446;2023-02-15T03:37:32;40.40;;;23.98;;
39454;SDS011;25155;41.890;23.446;2023-02-15T03:40:06;40.33;;;24.35;;
39454;SDS011;25155;41.890;23.446;2023-02-15T03:42:53;41.72;;;26.23;;
39454;SDS011;25155;41.890;23.446;2023-02-15T03:45:28;31.75;;;19.65;;
39454;SDS011;25155;41.890;23.446;2023-02-15T03:47:59;25.65;;;17.33;;
39454;SDS011;25155;41.890;23.446;2023-02-15T03:50:30;20.33;;;13.80;;
39454;SDS011;25155;41.890;23.446;2023-02-15T03:53:18;25.77;;;16.88;;
39454;SDS011;25155;41.890;23.446;2023-02-15T03:55:48;20.25;;;14.98;;
39454;SDS011;25155;41.890;23.446;2023-02-15T03:58:19;21.33;;;13.18;;
39454;SDS011;25155;41.890;23.446;2023-02-15T04:01:05;22.33;;;15.40;;
39454;SDS011;25155;41.890;23.446;2023-02-15T04:03:59;21.00;;;14.30;;
39454;SDS011;25155;41.890;23.446;2023-02-15T04:06:32;19.00;;;12.32;;
39454;SDS011;25155;41.890;23.446;2023-02-15T04:09:05;17.25;;;11.48;;
39454;SDS011;25155;41.890;23.446;2023-02-15T04:11:49;19.65;;;13.25;;
39454;SDS011;25155;41.890;23.446;2023-02-15T04:14:17;15.02;;;10.48;;
39454;SDS011;25155;41.890;23.446;2023-02-15T04:17:02;18.10;;;12.38;;
39454;SDS011;25155;41.890;23.446;2023-02-15T04:19:33;19.80;;;12.93;;
39454;SDS011;25155;41.890;23.446;2023-02-15T04:22:18;24.63;;;15.60;;
39454;SDS011;25155;41.890;23.446;2023-02-15T04:25:03;21.42;;;14.23;;
39454;SDS011;25155;41.890;23.446;2023-02-15T04:27:37;26.05;;;15.90;;
39454;SDS011;25155;41.890;23.446;2023-02-15T04:30:05;37.42;;;24.30;;
39454;SDS011;25155;41.890;23.446;2023-02-15T04:32:33;43.00;;;25.05;;
39454;SDS011;25155;41.890;23.446;2023-02-15T04:35:01;34.55;;;21.20;;
39454;SDS011;25155;41.890;23.446;2023-02-15T04:37:29;35.00;;;20.48;;
39454;SDS011;25155;41.890;23.446;2023-02-15T04:39:57;29.08;;;18.85;;
39454;SDS011;25155;41.890;23.446;2023-02-15T04:42:24;33.17;;;21.70;;
39454;SDS011;25155;41.890;23.446;2023-02-15T04:44:52;31.15;;;19.30;;
39454;SDS011;25155;41.890;23.446;2023-02-15T04:47:19;26.98;;;17.73;;
39454;SDS011;25155;41.890;23.446;2023-02-15T04:49:47;31.35;;;20.90;;
39454;SDS011;25155;41.890;23.446;2023-02-15T04:52:14;34.08;;;21.77;;
39454;SDS011;25155;41.890;23.446;2023-02-15T04:54:44;32.13;;;21.17;;
39454;SDS011;25155;41.890;23.446;2023-02-15T04:57:12;28.73;;;18.65;;
39454;SDS011;25155;41.890;23.446;2023-02-15T04:59:40;28.10;;;18.92;;
39454;SDS011;25155;41.890;23.446;2023-02-15T05:02:07;27.73;;;18.20;;
39454;SDS011;25155;41.890;23.446;2023-02-15T05:04:35;28.35;;;19.73;;
39454;SDS011;25155;41.890;23.446;2023-02-15T05:07:03;27.75;;;18.35;;
39454;SDS011;25155;41.890;23.446;2023-02-15T05:09:30;28.67;;;17.73;;
39454;SDS011;25155;41.890;23.446;2023-02-15T05:11:59;26.00;;;16.77;;
39454;SDS011;25155;41.890;23.446;2023-02-15T05:14:26;26.38;;;16.73;;
39454;SDS011;25155;41.890;23.446;2023-02-15T05:16:53;31.67;;;20.30;;
39454;SDS011;25155;41.890;23.446;2023-02-15T05:19:20;39.97;;;25.63;;
39454;SDS011;25155;41.890;23.446;2023-02-15T05:21:49;32.40;;;20.00;;
39454;SDS011;25155;41.890;23.446;2023-02-15T05:24:17;26.75;;;17.98;;
39454;SDS011;25155;41.890;23.446;2023-02-15T05:27:03;27.13;;;17.42;;
39454;SDS011;25155;41.890;23.446;2023-02-15T05:29:59;28.30;;;18.80;;
39454;SDS011;25155;41.890;23.446;2023-02-15T05:32:26;27.58;;;18.42;;
39454;SDS011;25155;41.890;23.446;2023-02-15T05:34:53;25.20;;;16.55;;
39454;SDS011;25155;41.890;23.446;2023-02-15T05:37:20;27.38;;;16.83;;
39454;SDS011;25155;41.890;23.446;2023-02-15T05:39:48;35.28;;;21.60;;
39454;SDS011;25155;41.890;23.446;2023-02-15T05:42:16;53.80;;;31.63;;
39454;SDS011;25155;41.890;23.446;2023-02-15T05:44:43;93.60;;;55.80;;
39454;SDS011;25155;41.890;23.446;2023-02-15T05:47:10;83.05;;;51.42;;
39454;SDS011;25155;41.890;23.446;2023-02-15T05:49:40;74.28;;;44.92;;
39454;SDS011;25155;41.890;23.446;2023-02-15T05:52:07;67.93;;;41.92;;
39454;SDS011;25155;41.890;23.446;2023-02-15T05:54:34;68.90;;;40.83;;
39454;SDS011;25155;41.890;23.446;2023-02-15T05:57:01;68.47;;;40.78;;
39454;SDS011;25155;41.890;23.446;2023-02-15T05:59:31;68.57;;;42.47;;
39454;SDS011;25155;41.890;23.446;2023-02-15T06:01:58;72.93;;;42.70;;
39454;SDS011;25155;41.890;23.446;2023-02-15T06:04:25;78.75;;;45.65;;
39454;SDS011;25155;41.890;23.446;2023-02-15T06:06:52;69.72;;;42.83;;
39454;SDS011;25155;41.890;23.446;2023-02-15T06:09:20;76.15;;;47.47;;
39454;SDS011;25155;41.890;23.446;2023-02-15T06:11:47;85.70;;;50.78;;
39454;SDS011;25155;41.890;23.446;2023-02-15T06:14:14;83.65;;;50.83;;
39454;SDS011;25155;41.890;23.446;2023-02-15T06:16:42;89.50;;;53.25;;
39454;SDS011;25155;41.890;23.446;2023-02-15T06:19:10;105.07;;;61.78;;
39454;SDS011;25155;41.890;23.446;2023-02-15T06:21:37;78.65;;;48.63;;
39454;SDS011;25155;41.890;23.446;2023-02-15T06:24:04;80.95;;;49.65;;
39454;SDS011;25155;41.890;23.446;2023-02-15T06:26:31;97.28;;;56.80;;
39454;SDS011;25155;41.890;23.446;2023-02-15T06:28:59;80.22;;;47.90;;
39454;SDS011;25155;41.890;23.446;2023-02-15T06:31:26;100.47;;;59.75;;
39454;SDS011;25155;41.890;23.446;2023-02-15T06:33:54;114.97;;;70.55;;
39454;SDS011;25155;41.890;23.446;2023-02-15T06:36:27;113.97;;;68.80;;
39454;SDS011;25155;41.890;23.446;2023-02-15T06:38:55;121.75;;;74.07;;
39454;SDS011;25155;41.890;23.446;2023-02-15T06:41:22;128.68;;;78.85;;
39454;SDS011;25155;41.890;23.446;2023-02-15T06:43:50;121.20;;;73.40;;
39454;SDS011;25155;41.890;23.446;2023-02-15T06:46:17;107.40;;;66.53;;
39454;SDS011;25155;41.890;23.446;2023-02-15T06:48:44;103.15;;;64.30;;
39454;SDS011;25155;41.890;23.446;2023-02-15T06:51:13;137.63;;;84.20;;
39454;SDS011;25155;41.890;23.446;2023-02-15T06:53:40;154.40;;;91.75;;
39454;SDS011;25155;41.890;23.446;2023-02-15T06:56:08;139.02;;;83.57;;
39454;SDS011;25155;41.890;23.446;2023-02-15T06:58:37;122.88;;;75.88;;
39454;SDS011;25155;41.890;23.446;2023-02-15T07:01:05;105.85;;;64.85;;
39454;SDS011;25155;41.890;23.446;2023-02-15T07:03:33;122.32;;;77.05;;
39454;SDS011;25155;41.890;23.446;2023-02-15T07:06:01;103.65;;;62.58;;
39454;SDS011;25155;41.890;23.446;2023-02-15T07:08:32;66.18;;;43.25;;
39454;SDS011;25155;41.890;23.446;2023-02-15T07:11:00;49.55;;;33.13;;
39454;SDS011;25155;41.890;23.446;2023-02-15T07:13:41;56.03;;;35.72;;
39454;SDS011;25155;41.890;23.446;2023-02-15T07:16:09;53.08;;;34.13;;
39454;SDS011;25155;41.890;23.446;2023-02-15T07:18:36;39.67;;;25.95;;
39454;SDS011;25155;41.890;23.446;2023-02-15T07:21:03;52.53;;;34.85;;
39454;SDS011;25155;41.890;23.446;2023-02-15T07:23:34;54.85;;;35.10;;
39454;SDS011;25155;41.890;23.446;2023-02-15T07:26:02;67.60;;;43.47;;
39454;SDS011;25155;41.890;23.446;2023-02-15T07:28:29;51.20;;;32.40;;
39454;SDS011;25155;41.890;23.446;2023-02-15T07:30:57;39.35;;;27.25;;
39454;SDS011;25155;41.890;23.446;2023-02-15T07:33:24;57.33;;;38.58;;
39454;SDS011;25155;41.890;23.446;2023-02-15T07:35:52;65.00;;;42.78;;
39454;SDS011;25155;41.890;23.446;2023-02-15T07:38:22;75.50;;;47.28;;
39454;SDS011;25155;41.890;23.446;2023-02-15T07:40:51;79.60;;;51.28;;
39454;SDS011;25155;41.890;23.446;2023-02-15T07:43:23;89.60;;;58.67;;
39454;SDS011;25155;41.890;23.446;2023-02-15T07:45:51;98.32;;;60.28;;
39454;SDS011;25155;41.890;23.446;2023-02-15T07:48:18;82.13;;;52.83;;
39454;SDS011;25155;41.890;23.446;2023-02-15T07:50:45;70.15;;;46.47;;
39454;SDS011;25155;41.890;23.446;2023-02-15T07:53:12;84.85;;;54.28;;
39454;SDS011;25155;41.890;23.446;2023-02-15T07:55:39;77.45;;;51.78;;
39454;SDS011;25155;41.890;23.446;2023-02-15T07:58:08;94.40;;;62.05;;
39454;SDS011;25155;41.890;23.446;2023-02-15T08:00:35;94.75;;;61.20;;
39454;SDS011;25155;41.890;23.446;2023-02-15T08:03:22;97.32;;;64.28;;
39454;SDS011;25155;41.890;23.446;2023-02-15T08:05:54;100.00;;;64.10;;
39454;SDS011;25155;41.890;23.446;2023-02-15T08:08:23;83.47;;;53.65;;
39454;SDS011;25155;41.890;23.446;2023-02-15T08:11:00;81.90;;;53.30;;
39454;SDS011;25155;41.890;23.446;2023-02-15T08:13:49;65.10;;;43.55;;
39454;SDS011;25155;41.890;23.446;2023-02-15T08:16:24;68.38;;;45.92;;
39454;SDS011;25155;41.890;23.446;2023-02-15T08:18:53;71.95;;;48.60;;
39454;SDS011;25155;41.890;23.446;2023-02-15T08:21:20;78.43;;;49.97;;
39454;SDS011;25155;41.890;23.446;2023-02-15T08:23:48;66.80;;;43.33;;
39454;SDS011;25155;41.890;23.446;2023-02-15T08:26:15;78.20;;;50.05;;
39454;SDS011;25155;41.890;23.446;2023-02-15T08:28:43;84.75;;;57.72;;
39454;SDS011;25155;41.890;23.446;2023-02-15T08:31:13;73.78;;;45.20;;
39454;SDS011;25155;41.890;23.446;2023-02-15T08:33:40;83.20;;;52.38;;
39454;SDS011;25155;41.890;23.446;2023-02-15T08:36:10;80.18;;;47.80;;
39454;SDS011;25155;41.890;23.446;2023-02-15T08:38:39;69.68;;;43.90;;
39454;SDS011;25155;41.890;23.446;2023-02-15T08:41:10;60.15;;;38.70;;
39454;SDS011;25155;41.890;23.446;2023-02-15T08:43:39;57.28;;;38.45;;
39454;SDS011;25155;41.890;23.446;2023-02-15T08:46:06;65.68;;;41.50;;
39454;SDS011;25155;41.890;23.446;2023-02-15T08:48:35;69.38;;;45.30;;
39454;SDS011;25155;41.890;23.446;2023-02-15T08:51:07;53.97;;;37.28;;
39454;SDS011;25155;41.890;23.446;2023-02-15T08:53:37;48.17;;;31.98;;
39454;SDS011;25155;41.890;23.446;2023-02-15T08:56:05;58.83;;;39.47;;
39454;SDS011;25155;41.890;23.446;2023-02-15T08:58:33;71.30;;;42.60;;
39454;SDS011;25155;41.890;23.446;2023-02-15T09:01:01;50.92;;;34.53;;
39454;SDS011;25155;41.890;23.446;2023-02-15T09:03:36;54.50;;;37.08;;
39454;SDS011;25155;41.890;23.446;2023-02-15T09:06:04;60.22;;;40.20;;
39454;SDS011;25155;41.890;23.446;2023-02-15T09:08:31;55.50;;;37.28;;
39454;SDS011;25155;41.890;23.446;2023-02-15T09:11:05;47.47;;;34.20;;
39454;SDS011;25155;41.890;23.446;2023-02-15T09:13:35;51.97;;;35.58;;
39454;SDS011;25155;41.890;23.446;2023-02-15T09:16:04;48.47;;;34.65;;
39454;SDS011;25155;41.890;23.446;2023-02-15T09:18:33;45.22;;;32.20;;
39454;SDS011;25155;41.890;23.446;2023-02-15T09:21:08;42.88;;;30.35;;
39454;SDS011;25155;41.890;23.446;2023-02-15T09:23:40;41.63;;;29.98;;
39454;SDS011;25155;41.890;23.446;2023-02-15T09:26:08;41.83;;;27.52;;
39454;SDS011;25155;41.890;23.446;2023-02-15T09:28:38;37.10;;;27.08;;
39454;SDS011;25155;41.890;23.446;2023-02-15T09:31:06;36.03;;;26.00;;
39454;SDS011;25155;41.890;23.446;2023-02-15T09:33:36;31.58;;;23.92;;
39454;SDS011;25155;41.890;23.446;2023-02-15T09:36:04;35.15;;;25.20;;
39454;SDS011;25155;41.890;23.446;2023-02-15T09:38:33;36.40;;;26.00;;
39454;SDS011;25155;41.890;23.446;2023-02-15T09:41:07;40.53;;;28.02;;
39454;SDS011;25155;41.890;23.446;2023-02-15T09:43:49;32.53;;;24.08;;
39454;SDS011;25155;41.890;23.446;2023-02-15T09:49:16;30.73;;;23.98;;
39454;SDS011;25155;41.890;23.446;2023-02-15T09:52:00;33.08;;;22.92;;
39454;SDS011;25155;41.890;23.446;2023-02-15T09:54:52;27.48;;;19.73;;
39454;SDS011;25155;41.890;23.446;2023-02-15T09:57:33;20.97;;;14.93;;
39454;SDS011;25155;41.890;23.446;2023-02-15T10:00:12;20.92;;;15.23;;
39454;SDS011;25155;41.890;23.446;2023-02-15T10:02:52;16.27;;;12.25;;
39454;SDS011;25155;41.890;23.446;2023-02-15T10:05:38;17.70;;;12.57;;
39454;SDS011;25155;41.890;23.446;2023-02-15T10:08:27;18.23;;;12.40;;
39454;SDS011;25155;41.890;23.446;2023-02-15T10:11:11;16.45;;;12.18;;
39454;SDS011;25155;41.890;23.446;2023-02-15T10:14:03;16.90;;;11.05;;
39454;SDS011;25155;41.890;23.446;2023-02-15T10:16:46;14.97;;;11.67;;
39454;SDS011;25155;41.890;23.446;2023-02-15T10:19:25;15.00;;;12.10;;
39454;SDS011;25155;41.890;23.446;2023-02-15T10:22:03;15.23;;;11.85;;
39454;SDS011;25155;41.890;23.446;2023-02-15T10:24:49;15.25;;;11.20;;
39454;SDS011;25155;41.890;23.446;2023-02-15T10:27:30;16.98;;;12.13;;
39454;SDS011;25155;41.890;23.446;2023-02-15T10:30:06;16.55;;;12.77;;
39454;SDS011;25155;41.890;23.446;2023-02-15T10:32:37;15.20;;;11.82;;
39454;SDS011;25155;41.890;23.446;2023-02-15T10:35:15;14.20;;;10.68;;
39454;SDS011;25155;41.890;23.446;2023-02-15T10:37:51;13.25;;;10.45;;
39454;SDS011;25155;41.890;23.446;2023-02-15T10:40:39;14.38;;;10.85;;
39454;SDS011;25155;41.890;23.446;2023-02-15T10:43:22;15.10;;;11.88;;
39454;SDS011;25155;41.890;23.446;2023-02-15T10:46:02;14.15;;;10.80;;
39454;SDS011;25155;41.890;23.446;2023-02-15T10:49:01;14.43;;;11.48;;
39454;SDS011;25155;41.890;23.446;2023-02-15T10:51:44;14.52;;;11.00;;
39454;SDS011;25155;41.890;23.446;2023-02-15T10:54:27;14.60;;;11.38;;
39454;SDS011;25155;41.890;23.446;2023-02-15T10:57:03;14.70;;;10.85;;
39454;SDS011;25155;41.890;23.446;2023-02-15T10:59:40;15.55;;;11.55;;
39454;SDS011;25155;41.890;23.446;2023-02-15T11:02:23;14.13;;;9.75;;
39454;SDS011;25155;41.890;23.446;2023-02-15T11:05:05;14.68;;;11.52;;
39454;SDS011;25155;41.890;23.446;2023-02-15T11:07:44;14.77;;;11.35;;
39454;SDS011;25155;41.890;23.446;2023-02-15T11:10:21;12.50;;;9.05;;
39454;SDS011;25155;41.890;23.446;2023-02-15T11:12:55;14.15;;;10.55;;
39454;SDS011;25155;41.890;23.446;2023-02-15T11:15:29;15.25;;;11.95;;
39454;SDS011;25155;41.890;23.446;2023-02-15T11:18:01;16.55;;;11.95;;
39454;SDS011;25155;41.890;23.446;2023-02-15T11:20:37;15.55;;;11.95;;
39454;SDS011;25155;41.890;23.446;2023-02-15T11:23:12;15.02;;;11.52;;
39454;SDS011;25155;41.890;23.446;2023-02-15T11:25:44;16.33;;;12.20;;
39454;SDS011;25155;41.890;23.446;2023-02-15T11:28:19;14.00;;;10.77;;
39454;SDS011;25155;41.890;23.446;2023-02-15T11:30:53;13.95;;;10.32;;
39454;SDS011;25155;41.890;23.446;2023-02-15T11:33:23;15.55;;;11.98;;
39454;SDS011;25155;41.890;23.446;2023-02-15T11:35:56;13.40;;;10.30;;
39454;SDS011;25155;41.890;23.446;2023-02-15T11:38:27;16.70;;;12.52;;
39454;SDS011;25155;41.890;23.446;2023-02-15T11:40:59;14.87;;;11.07;;
39454;SDS011;25155;41.890;23.446;2023-02-15T11:43:33;16.92;;;11.57;;
39454;SDS011;25155;41.890;23.446;2023-02-15T11:46:06;15.13;;;11.38;;
39454;SDS011;25155;41.890;23.446;2023-02-15T11:48:37;18.42;;;13.43;;
39454;SDS011;25155;41.890;23.446;2023-02-15T11:51:08;15.93;;;12.40;;
39454;SDS011;25155;41.890;23.446;2023-02-15T11:53:39;16.35;;;12.23;;
39454;SDS011;25155;41.890;23.446;2023-02-15T11:56:12;15.88;;;11.50;;
39454;SDS011;25155;41.890;23.446;2023-02-15T11:58:43;16.38;;;13.35;;
39454;SDS011;25155;41.890;23.446;2023-02-15T12:01:16;17.17;;;11.27;;
39454;SDS011;25155;41.890;23.446;2023-02-15T12:03:49;14.05;;;11.93;;
39454;SDS011;25155;41.890;23.446;2023-02-15T12:06:23;12.95;;;10.52;;
39454;SDS011;25155;41.890;23.446;2023-02-15T12:08:58;15.10;;;11.85;;
39454;SDS011;25155;41.890;23.446;2023-02-15T12:11:34;14.30;;;11.23;;
39454;SDS011;25155;41.890;23.446;2023-02-15T12:14:04;18.88;;;12.50;;
39454;SDS011;25155;41.890;23.446;2023-02-15T12:16:39;15.77;;;11.52;;
39454;SDS011;25155;41.890;23.446;2023-02-15T12:19:13;16.00;;;12.05;;
39454;SDS011;25155;41.890;23.446;2023-02-15T12:21:54;15.27;;;11.95;;
39454;SDS011;25155;41.890;23.446;2023-02-15T12:24:23;16.13;;;13.25;;
39454;SDS011;25155;41.890;23.446;2023-02-15T12:27:01;15.82;;;12.35;;
39454;SDS011;25155;41.890;23.446;2023-02-15T12:29:33;18.13;;;13.25;;
39454;SDS011;25155;41.890;23.446;2023-02-15T12:32:10;16.63;;;12.80;;
39454;SDS011;25155;41.890;23.446;2023-02-15T12:34:44;16.20;;;11.52;;
39454;SDS011;25155;41.890;23.446;2023-02-15T12:37:15;15.27;;;12.27;;
39454;SDS011;25155;41.890;23.446;2023-02-15T12:39:51;14.55;;;11.23;;
39454;SDS011;25155;41.890;23.446;2023-02-15T12:42:21;13.45;;;10.35;;
39454;SDS011;25155;41.890;23.446;2023-02-15T12:44:53;13.55;;;10.93;;
39454;SDS011;25155;41.890;23.446;2023-02-15T12:47:27;13.50;;;10.32;;
39454;SDS011;25155;41.890;23.446;2023-02-15T12:50:07;12.57;;;10.60;;
39454;SDS011;25155;41.890;23.446;2023-02-15T12:52:51;12.40;;;9.82;;
39454;SDS011;25155;41.890;23.446;2023-02-15T12:55:32;14.73;;;11.63;;
39454;SDS011;25155;41.890;23.446;2023-02-15T12:58:06;12.85;;;8.85;;
39454;SDS011;25155;41.890;23.446;2023-02-15T13:00:34;14.15;;;10.30;;
39454;SDS011;25155;41.890;23.446;2023-02-15T13:03:03;13.50;;;9.77;;
39454;SDS011;25155;41.890;23.446;2023-02-15T13:05:32;11.90;;;8.77;;
39454;SDS011;25155;41.890;23.446;2023-02-15T13:08:03;13.73;;;10.20;;
39454;SDS011;25155;41.890;23.446;2023-02-15T13:10:40;12.18;;;9.70;;
39454;SDS011;25155;41.890;23.446;2023-02-15T13:13:09;15.00;;;11.03;;
39454;SDS011;25155;41.890;23.446;2023-02-15T13:15:39;12.88;;;9.45;;
39454;SDS011;25155;41.890;23.446;2023-02-15T13:18:12;13.30;;;11.00;;
39454;SDS011;25155;41.890;23.446;2023-02-15T13:20:42;12.13;;;9.77;;
39454;SDS011;25155;41.890;23.446;2023-02-15T13:23:17;12.52;;;8.30;;
39454;SDS011;25155;41.890;23.446;2023-02-15T13:25:52;12.48;;;9.52;;
39454;SDS011;25155;41.890;23.446;2023-02-15T13:28:23;12.00;;;8.70;;
39454;SDS011;25155;41.890;23.446;2023-02-15T13:30:54;14.95;;;10.68;;
39454;SDS011;25155;41.890;23.446;2023-02-15T13:33:25;15.23;;;11.32;;
39454;SDS011;25155;41.890;23.446;2023-02-15T13:36:01;12.70;;;10.18;;
39454;SDS011;25155;41.890;23.446;2023-02-15T13:38:41;14.07;;;10.60;;
39454;SDS011;25155;41.890;23.446;2023-02-15T13:41:31;12.23;;;9.65;;
39454;SDS011;25155;41.890;23.446;2023-02-15T13:44:03;11.98;;;8.98;;
39454;SDS011;25155;41.890;23.446;2023-02-15T13:46:45;13.07;;;10.38;;
39454;SDS011;25155;41.890;23.446;2023-02-15T13:49:29;12.77;;;9.57;;
39454;SDS011;25155;41.890;23.446;2023-02-15T13:52:11;11.68;;;9.15;;
39454;SDS011;25155;41.890;23.446;2023-02-15T13:54:48;11.30;;;8.98;;
39454;SDS011;25155;41.890;23.446;2023-02-15T13:57:40;11.95;;;9.73;;
39454;SDS011;25155;41.890;23.446;2023-02-15T14:02:56;17.77;;;10.85;;
39454;SDS011;25155;41.890;23.446;2023-02-15T14:05:53;12.77;;;9.73;;
39454;SDS011;25155;41.890;23.446;2023-02-15T14:08:41;11.80;;;8.70;;
39454;SDS011;25155;41.890;23.446;2023-02-15T14:11:19;12.05;;;9.30;;
39454;SDS011;25155;41.890;23.446;2023-02-15T14:13:57;11.88;;;9.20;;
39454;SDS011;25155;41.890;23.446;2023-02-15T14:16:41;12.63;;;9.27;;
39454;SDS011;25155;41.890;23.446;2023-02-15T14:19:16;11.82;;;9.55;;
39454;SDS011;25155;41.890;23.446;2023-02-15T14:21:53;13.55;;;10.07;;
39454;SDS011;25155;41.890;23.446;2023-02-15T14:24:30;13.32;;;9.57;;
39454;SDS011;25155;41.890;23.446;2023-02-15T14:27:07;10.68;;;8.07;;
39454;SDS011;25155;41.890;23.446;2023-02-15T14:32:16;11.93;;;8.35;;
39454;SDS011;25155;41.890;23.446;2023-02-15T14:34:50;13.82;;;9.15;;
39454;SDS011;25155;41.890;23.446;2023-02-15T14:37:24;14.02;;;9.98;;
39454;SDS011;25155;41.890;23.446;2023-02-15T14:40:00;14.05;;;9.93;;
39454;SDS011;25155;41.890;23.446;2023-02-15T14:42:51;13.07;;;9.55;;
39454;SDS011;25155;41.890;23.446;2023-02-15T14:45:27;12.82;;;8.52;;
39454;SDS011;25155;41.890;23.446;2023-02-15T14:48:09;13.85;;;8.93;;
39454;SDS011;25155;41.890;23.446;2023-02-15T14:50:44;11.98;;;8.90;;
39454;SDS011;25155;41.890;23.446;2023-02-15T14:53:22;13.13;;;10.13;;
39454;SDS011;25155;41.890;23.446;2023-02-15T14:56:17;13.00;;;9.30;;